Time;durP1;ratioP1;P1;durP2;ratioP2;P2;SDS_P1;SDS_P2;PMS_P1;PMS_P2;Temp;Humidity;BMP_temperature;BMP_pressure;BME280_temperature;BME280_humidity;BME280_pressure;Samples;Min_cycle;Max_cycle;Signal;HPM_P1;HPM_P2
2022/08/13 00:00:19;;;;;;;9.93;2.85;;;25.10;47.70;;;;;;4960052;28;20038;-73
2022/08/13 00:02:45;;;;;;;5.82;2.70;;;25.10;47.30;;;;;;4977235;28;20644;-74
2022/08/13 00:05:11;;;;;;;10.25;3.20;;;25.10;47.50;;;;;;4975902;28;20027;-73
2022/08/13 00:07:37;;;;;;;6.38;3.00;;;25.10;47.20;;;;;;4969822;28;20510;-73
2022/08/13 00:10:06;;;;;;;6.30;2.75;;;25.10;47.80;;;;;;4977369;28;20027;-73
2022/08/13 00:15:28;;;;;;;5.40;2.95;;;25.20;47.40;;;;;;4971385;28;20053;-73
2022/08/13 00:18:02;;;;;;;7.05;3.03;;;25.20;47.70;;;;;;4973845;28;20042;-72
2022/08/13 00:20:38;;;;;;;5.57;2.83;;;25.20;47.20;;;;;;4986358;28;20546;-72
2022/08/13 00:23:07;;;;;;;6.65;2.58;;;25.10;47.30;;;;;;4973177;28;20030;-72
2022/08/13 00:25:33;;;;;;;7.47;2.85;;;25.20;47.50;;;;;;4974456;28;20030;-72
2022/08/13 00:28:02;;;;;;;5.80;2.70;;;25.10;47.40;;;;;;4981433;28;20368;-72
2022/08/13 00:30:31;;;;;;;10.55;2.83;;;25.20;48.10;;;;;;4983056;28;20022;-73
2022/08/13 00:32:59;;;;;;;6.55;2.75;;;25.10;47.60;;;;;;4963740;28;20046;-73
2022/08/13 00:35:27;;;;;;;6.28;2.60;;;25.10;47.50;;;;;;4976942;28;20022;-73
2022/08/13 00:37:56;;;;;;;6.95;2.92;;;25.10;47.50;;;;;;4985135;28;20098;-73
2022/08/13 00:40:22;;;;;;;6.07;2.78;;;25.10;47.80;;;;;;4982852;28;20033;-73
2022/08/13 00:42:50;;;;;;;6.28;2.30;;;25.10;47.60;;;;;;4964609;28;20403;-72
2022/08/13 00:45:17;;;;;;;8.38;2.65;;;25.10;47.70;;;;;;4975487;28;20038;-73
2022/08/13 00:50:27;;;;;;;5.75;2.95;;;25.10;47.60;;;;;;4976519;28;20497;-73
2022/08/13 00:52:53;;;;;;;4.90;2.90;;;25.10;48.00;;;;;;4949316;28;20034;-73
2022/08/13 00:55:21;;;;;;;7.60;2.92;;;25.10;48.80;;;;;;4968815;28;20023;-73
2022/08/13 00:57:48;;;;;;;4.72;2.80;;;25.10;47.90;;;;;;4968409;28;20109;-73
2022/08/13 01:00:19;;;;;;;5.15;3.05;;;25.20;48.80;;;;;;4965625;28;20487;-73
2022/08/13 01:02:53;;;;;;;7.55;2.63;;;25.10;47.90;;;;;;4990713;28;20402;-73
2022/08/13 01:05:20;;;;;;;9.52;2.70;;;25.10;47.90;;;;;;4942255;28;20038;-73
2022/08/13 01:07:46;;;;;;;5.10;2.75;;;25.10;47.90;;;;;;4958226;28;20122;-73
2022/08/13 01:10:14;;;;;;;8.80;2.58;;;25.10;48.10;;;;;;4984201;28;20030;-73
2022/08/13 01:12:42;;;;;;;7.20;2.70;;;25.10;48.10;;;;;;4985389;28;20023;-73
2022/08/13 01:15:12;;;;;;;4.13;2.83;;;25.10;48.30;;;;;;4985722;28;20085;-74
2022/08/13 01:17:42;;;;;;;7.30;3.08;;;25.20;48.20;;;;;;4962198;28;20387;-73
2022/08/13 01:20:21;;;;;;;;;;;25.20;48.30;;;;;;4982397;28;20035;-74
2022/08/13 01:22:52;;;;;;;7.22;3.13;;;25.10;49.20;;;;;;4959853;28;19910;-73
2022/08/13 01:25:24;;;;;;;4.55;2.60;;;25.20;48.70;;;;;;4985170;28;20027;-73
2022/08/13 01:27:50;;;;;;;7.22;3.13;;;25.20;48.20;;;;;;4979037;28;20037;-73
2022/08/13 01:30:18;;;;;;;6.38;3.15;;;25.20;48.30;;;;;;4959976;28;20038;-73
2022/08/13 01:32:44;;;;;;;4.97;2.70;;;25.20;48.30;;;;;;4978728;28;20094;-73
2022/08/13 01:35:11;;;;;;;6.40;3.38;;;25.20;48.60;;;;;;4985716;28;20041;-73
2022/08/13 01:37:38;;;;;;;11.88;3.03;;;25.10;48.10;;;;;;4967097;28;20034;-73
2022/08/13 01:40:06;;;;;;;11.23;2.97;;;25.10;48.20;;;;;;4978960;28;20037;-73
2022/08/13 01:42:44;;;;;;;6.90;3.08;;;25.10;48.10;;;;;;4978387;28;20061;-73
2022/08/13 01:45:12;;;;;;;13.63;3.28;;;25.10;48.20;;;;;;4964443;28;20062;-74
2022/08/13 01:50:29;;;;;;;9.40;2.88;;;25.10;48.60;;;;;;4975649;28;20027;-74
2022/08/13 01:53:11;;;;;;;11.98;2.92;;;25.10;48.70;;;;;;4967465;28;20442;-73
2022/08/13 01:55:41;;;;;;;11.93;3.38;;;25.00;48.60;;;;;;4950567;28;20124;-73
2022/08/13 01:58:09;;;;;;;;;;;25.00;48.70;;;;;;4977416;28;20426;-73
2022/08/13 02:00:36;;;;;;;9.05;3.13;;;25.00;48.70;;;;;;4965091;28;20494;-73
2022/08/13 02:03:04;;;;;;;8.70;2.85;;;25.00;48.60;;;;;;4981524;28;20031;-74
2022/08/13 02:05:31;;;;;;;5.38;3.08;;;25.00;49.00;;;;;;4984814;28;20442;-74
2022/08/13 02:07:58;;;;;;;8.00;2.88;;;25.00;48.70;;;;;;4978227;28;20138;-73
2022/08/13 02:10:24;;;;;;;11.15;2.97;;;25.00;49.20;;;;;;4985670;28;20022;-73
2022/08/13 02:12:51;;;;;;;7.55;2.90;;;25.00;49.00;;;;;;4957927;28;20031;-73
2022/08/13 02:15:17;;;;;;;10.73;2.70;;;25.00;48.70;;;;;;4966216;28;20030;-72
2022/08/13 02:17:43;;;;;;;10.05;3.13;;;25.00;48.90;;;;;;4982210;28;20033;-73
2022/08/13 02:20:17;;;;;;;7.22;3.28;;;25.00;48.70;;;;;;4973507;28;20022;-74
2022/08/13 02:22:45;;;;;;;6.13;3.00;;;25.00;49.20;;;;;;4985439;28;20049;-73
2022/08/13 02:25:13;;;;;;;6.25;2.75;;;25.00;48.90;;;;;;4957314;28;20126;-74
2022/08/13 02:27:40;;;;;;;7.55;2.90;;;25.00;48.80;;;;;;4981451;28;20077;-74
2022/08/13 02:30:09;;;;;;;10.15;3.22;;;25.00;49.30;;;;;;4967614;28;20117;-74
2022/08/13 02:32:37;;;;;;;7.57;3.08;;;25.00;49.40;;;;;;4952343;28;20030;-74
2022/08/13 02:35:04;;;;;;;6.70;2.88;;;25.00;49.50;;;;;;4964687;28;20031;-74
2022/08/13 02:37:32;;;;;;;6.28;2.40;;;25.00;49.70;;;;;;4980918;28;20534;-74
2022/08/13 02:39:59;;;;;;;8.85;3.00;;;25.00;49.30;;;;;;4956332;28;20035;-74
2022/08/13 02:42:32;;;;;;;10.27;2.97;;;25.00;49.50;;;;;;4984043;28;20033;-74
2022/08/13 02:44:58;;;;;;;8.82;2.95;;;25.00;49.30;;;;;;4965482;28;20042;-74
2022/08/13 02:47:25;;;;;;;6.65;2.70;;;25.00;49.30;;;;;;4980677;28;20490;-74
2022/08/13 02:49:52;;;;;;;8.07;3.35;;;25.00;49.30;;;;;;4985749;28;20041;-74
2022/08/13 02:52:21;;;;;;;7.70;3.22;;;25.00;49.40;;;;;;4988280;28;20026;-74
2022/08/13 02:54:48;;;;;;;;;;;25.00;49.60;;;;;;4966443;28;20073;-73
2022/08/13 02:57:14;;;;;;;7.05;2.80;;;25.00;49.40;;;;;;4980152;28;19916;-74
2022/08/13 02:59:41;;;;;;;7.18;2.88;;;25.00;49.30;;;;;;4984437;28;20121;-74
2022/08/13 03:02:08;;;;;;;4.95;2.72;;;25.00;49.30;;;;;;4985059;28;20518;-74
2022/08/13 03:04:35;;;;;;;6.28;3.30;;;25.00;49.30;;;;;;4976476;28;20065;-73
2022/08/13 03:07:02;;;;;;;5.57;2.97;;;25.00;49.60;;;;;;4982376;28;20031;-73
2022/08/13 03:09:29;;;;;;;5.22;3.20;;;25.00;49.80;;;;;;4978729;28;20034;-73
2022/08/13 03:11:59;;;;;;;7.07;3.60;;;24.90;49.70;;;;;;4982047;28;20048;-73
2022/08/13 03:14:28;;;;;;;6.30;3.13;;;24.90;49.70;;;;;;4963496;28;20453;-73
2022/08/13 03:16:54;;;;;;;7.70;2.85;;;25.00;49.80;;;;;;4963785;28;20027;-73
2022/08/13 03:19:21;;;;;;;6.90;2.70;;;24.90;49.70;;;;;;4952086;28;20117;-73
2022/08/13 03:21:47;;;;;;;6.35;2.95;;;24.90;49.60;;;;;;4980173;28;20031;-73
2022/08/13 03:24:17;;;;;;;4.78;2.63;;;24.90;49.80;;;;;;4978781;28;20030;-73
2022/08/13 03:26:44;;;;;;;7.80;3.00;;;24.90;49.80;;;;;;4969965;28;20033;-74
2022/08/13 03:29:10;;;;;;;5.57;2.60;;;24.90;49.90;;;;;;4963710;28;20037;-74
2022/08/13 03:31:36;;;;;;;3.85;2.70;;;24.90;49.90;;;;;;4984609;28;20034;-74
2022/08/13 03:34:03;;;;;;;6.38;3.60;;;24.80;50.10;;;;;;4984291;28;20038;-74
2022/08/13 03:36:30;;;;;;;7.40;3.05;;;24.90;49.90;;;;;;4962163;28;20033;-74
2022/08/13 03:38:57;;;;;;;7.35;2.70;;;24.80;49.80;;;;;;4961847;28;20030;-74
2022/08/13 03:41:23;;;;;;;13.25;3.00;;;24.80;50.10;;;;;;4977184;28;20459;-74
2022/08/13 03:43:49;;;;;;;9.23;3.20;;;24.80;50.10;;;;;;4978900;28;20023;-74
2022/08/13 03:46:17;;;;;;;5.82;3.00;;;24.80;50.00;;;;;;4953049;28;20023;-74
2022/08/13 03:48:48;;;;;;;6.60;3.00;;;24.80;50.00;;;;;;4960217;28;20040;-74
2022/08/13 03:51:16;;;;;;;5.75;3.00;;;24.90;50.00;;;;;;4981617;28;20080;-74
2022/08/13 03:53:45;;;;;;;5.93;2.90;;;24.80;50.40;;;;;;4980007;28;20088;-74
2022/08/13 03:56:13;;;;;;;7.20;3.17;;;24.90;50.10;;;;;;4953944;28;20567;-74
2022/08/13 03:58:39;;;;;;;5.13;2.67;;;24.80;50.00;;;;;;4962901;28;20039;-74
2022/08/13 04:01:06;;;;;;;6.30;3.08;;;24.90;49.90;;;;;;4983758;28;20430;-74
2022/08/13 04:03:40;;;;;;;8.50;3.17;;;24.90;50.10;;;;;;4947124;29;20110;-74
2022/08/13 04:06:16;;;;;;;5.40;3.03;;;24.80;50.00;;;;;;4965776;28;20030;-74
2022/08/13 04:08:44;;;;;;;4.90;3.17;;;24.90;50.10;;;;;;4978301;28;20507;-74
2022/08/13 04:11:15;;;;;;;9.20;3.22;;;24.90;50.10;;;;;;4973160;28;20029;-74
2022/08/13 04:13:41;;;;;;;7.72;2.90;;;24.90;50.20;;;;;;4978145;28;20030;-74
2022/08/13 04:16:13;;;;;;;7.32;3.50;;;24.90;50.20;;;;;;4981274;28;20019;-74
2022/08/13 04:18:41;;;;;;;10.82;3.28;;;24.90;50.20;;;;;;4979714;28;20042;-74
2022/08/13 04:21:09;;;;;;;9.50;3.65;;;24.90;50.10;;;;;;4955898;28;20364;-74
2022/08/13 04:23:43;;;;;;;8.07;3.30;;;24.90;50.30;;;;;;4980184;28;20176;-74
2022/08/13 04:26:11;;;;;;;7.55;3.65;;;24.90;50.30;;;;;;4965346;28;20026;-75
2022/08/13 04:28:41;;;;;;;6.38;3.10;;;24.90;50.30;;;;;;4959304;28;20041;-74
2022/08/13 04:31:10;;;;;;;9.02;3.50;;;24.90;50.40;;;;;;4961589;28;20030;-74
2022/08/13 04:33:36;;;;;;;5.72;3.15;;;24.80;50.40;;;;;;4983346;28;20038;-74
2022/08/13 04:36:03;;;;;;;6.07;2.83;;;24.80;50.40;;;;;;4964468;28;20545;-74
2022/08/13 04:38:29;;;;;;;4.72;3.08;;;24.80;50.60;;;;;;4975631;28;20023;-74
2022/08/13 04:40:56;;;;;;;8.73;3.17;;;24.80;50.70;;;;;;4978281;28;20026;-75
2022/08/13 04:43:21;;;;;;;4.90;2.83;;;24.80;50.70;;;;;;4978008;28;20053;-74
2022/08/13 04:45:48;;;;;;;7.13;3.25;;;24.80;50.80;;;;;;4980977;28;20060;-74
2022/08/13 04:48:15;;;;;;;6.68;3.55;;;24.80;51.50;;;;;;4981418;28;20065;-75
2022/08/13 04:50:44;;;;;;;5.53;3.20;;;24.80;51.00;;;;;;4968541;28;20675;-74
2022/08/13 04:53:21;;;;;;;6.50;3.03;;;24.80;51.10;;;;;;4972978;28;20057;-75
2022/08/13 04:55:47;;;;;;;8.68;2.95;;;24.80;51.20;;;;;;4965816;28;20105;-75
2022/08/13 04:58:13;;;;;;;5.00;3.08;;;24.80;51.20;;;;;;4964163;28;20102;-75
2022/08/13 05:00:39;;;;;;;8.18;3.30;;;24.80;51.20;;;;;;4963492;28;20398;-75
2022/08/13 05:03:16;;;;;;;7.65;3.22;;;24.80;51.20;;;;;;4955694;28;20100;-74
2022/08/13 05:05:44;;;;;;;11.48;3.08;;;24.80;51.20;;;;;;4959796;28;20034;-75
2022/08/13 05:08:11;;;;;;;8.38;3.22;;;24.80;51.40;;;;;;4967120;28;20384;-74
2022/08/13 05:10:40;;;;;;;13.65;3.28;;;24.80;51.50;;;;;;4985065;28;20076;-74
2022/08/13 05:13:32;;;;;;;10.20;3.03;;;24.80;51.40;;;;;;4948961;28;20452;-74
2022/08/13 05:16:01;;;;;;;5.28;2.95;;;24.80;51.70;;;;;;4976699;28;20046;-74
2022/08/13 05:18:29;;;;;;;13.32;3.42;;;24.80;51.60;;;;;;4978831;28;20031;-74
2022/08/13 05:21:05;;;;;;;9.93;3.88;;;24.80;51.70;;;;;;4963839;28;20046;-74
2022/08/13 05:23:34;;;;;;;4.75;3.28;;;24.80;51.70;;;;;;4985001;28;20037;-74
2022/08/13 05:26:00;;;;;;;6.80;3.60;;;24.80;51.80;;;;;;4984821;28;20031;-74
2022/08/13 05:28:26;;;;;;;5.28;3.33;;;24.80;51.70;;;;;;4985210;28;20110;-74
2022/08/13 05:30:52;;;;;;;7.45;2.72;;;24.80;52.00;;;;;;4978980;28;20027;-74
2022/08/13 05:33:24;;;;;;;6.07;2.90;;;24.80;52.00;;;;;;4986837;28;20037;-74
2022/08/13 05:35:58;;;;;;;5.38;3.25;;;24.80;52.00;;;;;;4982542;28;20493;-74
2022/08/13 05:38:27;;;;;;;9.52;3.35;;;24.80;52.20;;;;;;4962503;28;20019;-74
2022/08/13 05:40:55;;;;;;;7.07;3.23;;;24.80;52.00;;;;;;4983291;28;20031;-74
2022/08/13 05:43:24;;;;;;;10.15;3.20;;;24.80;52.00;;;;;;4985337;28;20046;-74
2022/08/13 05:45:59;;;;;;;8.68;3.67;;;24.80;52.00;;;;;;4955864;28;20031;-74
2022/08/13 05:48:29;;;;;;;5.50;3.00;;;24.90;52.00;;;;;;4970145;28;20368;-75
2022/08/13 05:50:59;;;;;;;8.73;3.50;;;24.90;52.10;;;;;;4975661;28;20031;-74
2022/08/13 05:53:26;;;;;;;5.18;3.08;;;24.90;52.10;;;;;;4968363;28;20022;-74
2022/08/13 05:55:53;;;;;;;9.15;3.28;;;24.90;52.20;;;;;;4985968;28;20080;-74
2022/08/13 05:58:21;;;;;;;4.90;3.28;;;24.90;52.00;;;;;;4992211;28;20019;-74
2022/08/13 06:03:32;;;;;;;13.65;3.53;;;25.00;53.50;;;;;;4969567;28;20039;-74
2022/08/13 06:06:04;;;;;;;11.60;3.45;;;25.00;52.50;;;;;;4978983;28;20514;-78
2022/08/13 06:08:34;;;;;;;11.95;3.85;;;25.10;54.40;;;;;;4962083;28;20034;-78
2022/08/13 06:11:03;;;;;;;9.32;3.45;;;25.10;54.50;;;;;;4982882;28;20031;-75
2022/08/13 06:13:30;;;;;;;14.38;6.07;;;25.10;53.10;;;;;;4957365;28;20061;-77
2022/08/13 06:16:00;;;;;;;22.42;12.93;;;25.10;52.50;;;;;;4982065;28;20415;-75
2022/08/13 06:18:32;;;;;;;21.52;12.23;;;25.10;53.50;;;;;;4989792;28;20041;-76
2022/08/13 06:21:00;;;;;;;21.25;8.65;;;25.10;55.20;;;;;;4984614;28;20027;-77
2022/08/13 06:23:29;;;;;;;14.70;6.32;;;25.10;54.40;;;;;;4969582;28;20415;-77
2022/08/13 06:25:57;;;;;;;11.50;6.85;;;25.10;52.90;;;;;;4983340;28;20058;-77
2022/08/13 06:28:26;;;;;;;18.58;9.35;;;25.10;53.00;;;;;;4970321;28;20554;-77
2022/08/13 06:30:54;;;;;;;13.47;7.20;;;25.10;53.40;;;;;;4966060;28;20034;-77
2022/08/13 06:33:22;;;;;;;13.05;7.43;;;25.10;52.90;;;;;;4970362;28;20031;-78
2022/08/13 06:35:53;;;;;;;19.55;6.95;;;25.00;53.10;;;;;;4961217;28;20023;-79
2022/08/13 06:38:22;;;;;;;13.20;6.22;;;25.00;53.10;;;;;;4956887;28;20498;-78
2022/08/13 06:40:48;;;;;;;14.13;6.15;;;25.10;52.70;;;;;;4940722;29;20506;-79
2022/08/13 06:43:18;;;;;;;11.50;5.20;;;25.10;52.80;;;;;;4974912;28;20434;-79
2022/08/13 06:45:46;;;;;;;14.25;5.78;;;25.10;53.20;;;;;;4978313;28;20030;-86
2022/08/13 06:48:13;;;;;;;12.30;5.28;;;25.10;53.10;;;;;;4967410;28;20038;-83
2022/08/13 06:50:39;;;;;;;13.57;5.65;;;25.20;53.00;;;;;;4937958;29;20090;-83
2022/08/13 06:53:06;;;;;;;22.85;5.70;;;25.10;53.00;;;;;;4954040;28;20029;-83
2022/08/13 06:55:36;;;;;;;18.50;6.38;;;25.20;52.70;;;;;;4921420;29;20392;-83
2022/08/13 06:58:10;;;;;;;12.65;4.60;;;25.20;52.70;;;;;;4953581;29;20027;-83
2022/08/13 07:00:38;;;;;;;11.80;5.60;;;25.20;52.90;;;;;;4954902;29;20027;-83
2022/08/13 07:03:09;;;;;;;14.38;6.75;;;25.20;52.90;;;;;;4937802;29;20055;-84
2022/08/13 07:05:41;;;;;;;10.75;5.65;;;25.20;52.40;;;;;;4937475;29;20069;-83
2022/08/13 07:08:09;;;;;;;12.68;5.43;;;25.20;52.70;;;;;;4938738;29;20042;-83
2022/08/13 07:10:37;;;;;;;14.45;5.60;;;25.20;52.20;;;;;;4953657;29;20094;-84
2022/08/13 07:13:05;;;;;;;12.55;5.30;;;25.20;52.20;;;;;;4937451;29;20094;-84
2022/08/13 07:15:31;;;;;;;9.25;5.15;;;25.20;52.40;;;;;;4936609;29;20027;-84
2022/08/13 07:17:58;;;;;;;11.65;5.28;;;25.20;52.50;;;;;;4936964;29;20167;-83
2022/08/13 07:20:25;;;;;;;11.98;5.63;;;25.20;52.30;;;;;;4953256;29;20086;-83
2022/08/13 07:22:53;;;;;;;8.75;5.10;;;25.20;52.10;;;;;;4937457;29;20377;-83
2022/08/13 07:25:24;;;;;;;8.93;5.07;;;25.20;52.20;;;;;;4936210;29;20035;-83
2022/08/13 07:27:51;;;;;;;9.68;4.93;;;25.20;52.20;;;;;;4953231;29;20118;-83
2022/08/13 07:30:19;;;;;;;10.05;5.18;;;25.20;52.10;;;;;;4921299;29;20042;-83
2022/08/13 07:32:46;;;;;;;15.35;5.20;;;25.20;52.40;;;;;;4921508;29;20123;-84
2022/08/13 07:35:12;;;;;;;11.52;5.03;;;25.20;52.40;;;;;;4936354;29;20031;-83
2022/08/13 07:37:41;;;;;;;10.00;4.97;;;25.20;52.30;;;;;;4937310;29;20031;-84
2022/08/13 07:40:08;;;;;;;8.00;4.30;;;25.20;52.40;;;;;;4954117;28;20035;-83
2022/08/13 07:42:42;;;;;;;9.23;4.60;;;25.20;52.40;;;;;;4921436;29;20031;-83
2022/08/13 07:45:10;;;;;;;10.77;5.20;;;25.20;52.30;;;;;;4951411;28;20031;-83
2022/08/13 07:47:38;;;;;;;8.48;4.90;;;25.30;52.30;;;;;;4921393;29;20043;-84
2022/08/13 07:50:10;;;;;;;9.15;5.00;;;25.30;52.30;;;;;;4952544;28;20046;-84
2022/08/13 07:52:38;;;;;;;11.10;4.85;;;25.30;52.80;;;;;;4921288;29;20177;-84
2022/08/13 07:55:07;;;;;;;9.60;4.43;;;25.30;52.30;;;;;;4936439;29;20027;-85
2022/08/13 07:57:35;;;;;;;8.45;4.60;;;25.30;53.10;;;;;;4921323;29;20031;-84
2022/08/13 08:00:04;;;;;;;8.70;4.65;;;25.20;52.30;;;;;;4936657;29;20086;-84
2022/08/13 08:02:39;;;;;;;10.98;5.32;;;25.30;52.00;;;;;;4953727;29;20035;-83
2022/08/13 08:05:12;;;;;;;9.43;4.70;;;25.30;52.70;;;;;;4936423;29;20569;-84
2022/08/13 08:07:39;;;;;;;9.25;4.90;;;25.30;52.60;;;;;;4921155;29;20043;-84
2022/08/13 08:10:09;;;;;;;8.70;4.53;;;25.30;52.20;;;;;;4920711;29;20031;-84
2022/08/13 08:12:36;;;;;;;;;;;25.30;52.10;;;;;;4937192;29;20074;-84
2022/08/13 08:15:07;;;;;;;8.18;4.53;;;25.30;52.30;;;;;;4920350;29;19917;-84
2022/08/13 08:17:33;;;;;;;9.85;4.43;;;25.30;52.10;;;;;;4936439;29;20038;-84
2022/08/13 08:19:59;;;;;;;9.20;4.38;;;25.30;52.20;;;;;;4920832;29;20388;-83
2022/08/13 08:22:25;;;;;;;11.13;4.50;;;25.30;52.00;;;;;;4920760;29;20035;-83
2022/08/13 08:24:51;;;;;;;7.70;4.53;;;25.30;52.00;;;;;;4920735;29;20142;-83
2022/08/13 08:27:19;;;;;;;9.57;4.93;;;25.30;52.00;;;;;;4904290;29;20113;-83
2022/08/13 08:29:46;;;;;;;10.40;4.28;;;25.30;52.10;;;;;;4952185;29;20396;-82
2022/08/13 08:32:14;;;;;;;8.35;4.50;;;25.30;52.10;;;;;;4920968;29;20034;-83
2022/08/13 08:34:42;;;;;;;9.52;4.63;;;25.30;52.10;;;;;;4936504;29;20507;-84
2022/08/13 08:42:35;;;;;;;7.28;4.50;;;25.30;52.10;;;;;;4919951;29;20147;-82
2022/08/13 08:42:43;;;;;;;5.82;4.13;;;25.30;52.00;;;;;;4920573;29;20074;-83
2022/08/13 08:45:13;;;;;;;6.70;4.30;;;25.30;52.10;;;;;;4919276;29;20038;-82
2022/08/13 08:47:41;;;;;;;8.88;4.38;;;25.30;51.90;;;;;;4936670;29;20037;-82
2022/08/13 08:50:09;;;;;;;8.18;4.28;;;25.30;52.00;;;;;;4920291;29;20058;-83
2022/08/13 08:55:20;;;;;;;9.05;4.28;;;25.30;51.90;;;;;;4952507;28;20452;-82
2022/08/13 08:57:46;;;;;;;6.70;4.10;;;25.30;52.00;;;;;;4938628;29;20042;-82
2022/08/13 09:00:18;;;;;;;6.90;4.20;;;25.30;52.00;;;;;;4939951;29;20031;-82
2022/08/13 09:02:47;;;;;;;6.90;3.95;;;25.30;51.90;;;;;;4939876;29;20032;-82
2022/08/13 09:05:16;;;;;;;6.43;4.50;;;25.30;51.90;;;;;;4955984;29;20028;-82
2022/08/13 09:07:46;;;;;;;6.18;3.97;;;25.30;51.80;;;;;;4939711;29;20118;-81
2022/08/13 09:10:13;;;;;;;9.57;4.60;;;25.30;51.90;;;;;;4956952;29;20031;-81
2022/08/13 09:12:44;;;;;;;8.02;4.13;;;25.30;51.90;;;;;;4923886;29;20039;-81
2022/08/13 09:15:17;;;;;;;7.10;4.22;;;25.30;51.90;;;;;;4955665;29;20090;-81
2022/08/13 09:17:45;;;;;;;7.05;3.97;;;25.30;51.80;;;;;;4939824;29;20035;-81
2022/08/13 09:20:14;;;;;;;8.93;4.10;;;25.30;51.80;;;;;;4956638;28;20035;-81
2022/08/13 09:22:41;;;;;;;;;;;25.30;51.80;;;;;;4924514;29;20085;-81
2022/08/13 09:25:08;;;;;;;7.13;3.95;;;25.30;51.80;;;;;;4938639;29;19958;-81
2022/08/13 09:27:35;;;;;;;6.55;4.20;;;25.30;51.90;;;;;;4955352;29;20074;-80
2022/08/13 09:30:03;;;;;;;6.32;3.95;;;25.30;52.40;;;;;;4955205;29;20028;-80
2022/08/13 09:32:35;;;;;;;6.15;4.32;;;25.40;51.90;;;;;;4939489;29;20034;-81
2022/08/13 09:35:03;;;;;;;6.53;3.92;;;25.40;51.90;;;;;;4939083;29;20035;-81
2022/08/13 09:37:31;;;;;;;6.90;4.25;;;25.40;51.90;;;;;;4955911;28;20031;-81
2022/08/13 09:40:10;;;;;;;7.13;4.38;;;25.40;51.90;;;;;;4939338;29;20090;-81
2022/08/13 09:42:50;;;;;;;7.45;4.28;;;25.40;52.10;;;;;;4939219;29;20043;-80
2022/08/13 09:45:17;;;;;;;6.80;4.20;;;25.40;51.90;;;;;;4922352;29;20424;-80
2022/08/13 09:47:43;;;;;;;7.22;4.18;;;25.40;51.80;;;;;;4939098;29;20066;-80
2022/08/13 09:50:10;;;;;;;6.05;3.83;;;25.40;52.00;;;;;;4939198;29;20308;-80
2022/08/13 09:52:36;;;;;;;6.85;4.45;;;25.50;52.00;;;;;;4939128;29;20369;-80
2022/08/13 09:55:04;;;;;;;7.15;3.85;;;25.40;52.00;;;;;;4955655;28;20027;-80
2022/08/13 09:57:30;;;;;;;7.22;4.07;;;25.40;52.00;;;;;;4938243;29;20169;-80
2022/08/13 09:59:55;;;;;;;6.32;4.10;;;25.40;52.00;;;;;;4939216;29;20133;-80
2022/08/13 10:02:21;;;;;;;6.45;4.45;;;25.50;52.00;;;;;;4938823;29;20134;-80
2022/08/13 10:04:52;;;;;;;9.30;4.60;;;25.40;52.00;;;;;;4938895;29;20035;-80
2022/08/13 10:07:18;;;;;;;6.63;4.10;;;25.40;52.00;;;;;;4937638;28;20480;-80
2022/08/13 10:09:44;;;;;;;6.20;4.05;;;25.40;51.90;;;;;;4922846;29;20031;-80
2022/08/13 10:12:10;;;;;;;7.00;4.40;;;25.40;52.00;;;;;;4938571;29;20027;-81
2022/08/13 10:14:36;;;;;;;5.90;3.92;;;25.40;52.00;;;;;;4955628;29;20038;-81
2022/08/13 10:17:04;;;;;;;9.02;4.07;;;25.40;52.00;;;;;;4921879;29;20082;-80
2022/08/13 10:19:31;;;;;;;6.88;4.18;;;25.40;52.00;;;;;;4922531;29;20034;-80
2022/08/13 10:21:59;;;;;;;8.80;4.32;;;25.40;52.00;;;;;;4922672;29;20027;-80
2022/08/13 10:24:25;;;;;;;6.40;4.03;;;25.40;52.10;;;;;;4955432;29;20039;-80
2022/08/13 10:26:51;;;;;;;6.43;3.83;;;25.40;52.00;;;;;;4922042;29;20513;-80
2022/08/13 10:29:17;;;;;;;5.90;4.18;;;25.40;52.10;;;;;;4954175;29;20031;-81
2022/08/13 10:31:42;;;;;;;4.80;3.60;;;25.40;52.00;;;;;;4922492;29;20034;-80
2022/08/13 10:34:08;;;;;;;6.35;4.10;;;25.30;52.00;;;;;;4938286;29;20122;-81
2022/08/13 10:36:37;;;;;;;7.35;4.35;;;25.40;52.10;;;;;;4938592;29;20042;-79
2022/08/13 10:39:05;;;;;;;6.25;4.20;;;25.40;52.10;;;;;;4939189;29;20034;-80
2022/08/13 10:41:31;;;;;;;5.97;3.80;;;25.30;52.10;;;;;;4940307;29;20035;-80
2022/08/13 10:43:59;;;;;;;9.07;4.72;;;25.40;52.20;;;;;;4939027;29;20097;-82
2022/08/13 10:46:31;;;;;;;8.25;4.40;;;25.40;52.50;;;;;;4907385;29;20039;-80
2022/08/13 10:48:58;;;;;;;5.80;4.15;;;25.40;52.60;;;;;;4923587;29;20031;-81
2022/08/13 10:51:29;;;;;;;7.75;4.15;;;25.40;52.20;;;;;;4957487;29;20032;-81
2022/08/13 10:53:55;;;;;;;6.38;4.07;;;25.30;52.30;;;;;;4939019;29;20050;-81
2022/08/13 10:56:22;;;;;;;4.85;3.88;;;25.40;52.40;;;;;;4954117;28;20365;-81
2022/08/13 10:58:49;;;;;;;6.20;4.35;;;25.40;52.50;;;;;;4939427;29;20035;-80
2022/08/13 11:01:15;;;;;;;5.45;3.70;;;25.30;52.40;;;;;;4955078;29;20059;-80
2022/08/13 11:03:45;;;;;;;7.13;4.18;;;25.40;52.70;;;;;;4954402;28;20051;-82
2022/08/13 11:06:11;;;;;;;6.00;4.03;;;25.40;52.60;;;;;;4955380;29;20034;-80
2022/08/13 11:08:38;;;;;;;6.85;4.43;;;25.40;52.60;;;;;;4954206;29;20122;-80
2022/08/13 11:11:04;;;;;;;6.15;3.80;;;25.40;52.60;;;;;;4938178;29;20046;-80
2022/08/13 11:13:36;;;;;;;7.93;3.83;;;25.50;52.80;;;;;;4937511;29;20551;-80
2022/08/13 11:16:05;;;;;;;5.72;4.20;;;25.50;52.80;;;;;;4937895;29;20372;-80
2022/08/13 11:18:32;;;;;;;6.45;4.00;;;25.40;52.70;;;;;;4939486;28;20023;-80
2022/08/13 11:21:07;;;;;;;7.00;4.18;;;25.50;52.80;;;;;;4906906;29;20038;-80
2022/08/13 11:23:36;;;;;;;6.82;4.18;;;25.50;52.80;;;;;;4937689;29;20531;-80
2022/08/13 11:26:03;;;;;;;5.97;3.97;;;25.40;52.70;;;;;;4921446;29;20066;-80
2022/08/13 11:28:29;;;;;;;7.57;4.32;;;25.40;52.70;;;;;;4937889;29;20415;-80
2022/08/13 11:30:56;;;;;;;6.15;3.75;;;25.50;52.90;;;;;;4923394;29;20035;-80
2022/08/13 11:33:23;;;;;;;4.95;3.95;;;25.50;52.90;;;;;;4959032;28;20023;-81
2022/08/13 11:35:51;;;;;;;5.22;3.70;;;25.50;52.90;;;;;;4989832;28;20048;-81
2022/08/13 11:38:20;;;;;;;5.22;3.90;;;25.50;52.70;;;;;;4944902;28;20027;-81
2022/08/13 11:40:48;;;;;;;6.10;4.03;;;25.40;52.60;;;;;;4993860;28;20536;-80
2022/08/13 11:43:14;;;;;;;7.70;3.95;;;25.50;52.90;;;;;;4945038;28;20034;-80
2022/08/13 11:45:40;;;;;;;5.15;3.70;;;25.40;52.70;;;;;;4960587;28;20164;-80
2022/08/13 11:48:06;;;;;;;6.85;4.10;;;25.40;52.80;;;;;;4976424;28;20044;-80
2022/08/13 11:50:32;;;;;;;5.75;4.00;;;25.40;52.80;;;;;;4960347;28;20035;-79
2022/08/13 11:52:58;;;;;;;6.10;3.88;;;25.40;53.00;;;;;;4993231;28;20033;-80
2022/08/13 11:55:24;;;;;;;6.05;3.38;;;25.40;53.00;;;;;;4960742;28;20098;-80
2022/08/13 11:58:10;;;;;;;6.15;4.30;;;25.40;52.90;;;;;;4993491;28;20026;-81
2022/08/13 12:00:37;;;;;;;6.28;4.07;;;25.40;53.00;;;;;;4960268;28;20050;-80
2022/08/13 12:03:05;;;;;;;9.07;4.30;;;25.40;52.90;;;;;;4943283;28;20038;-79
2022/08/13 12:05:31;;;;;;;6.32;3.95;;;25.40;53.00;;;;;;4958095;28;20034;-80
2022/08/13 12:07:57;;;;;;;6.38;3.95;;;25.40;53.10;;;;;;4975252;28;20061;-79
2022/08/13 12:10:23;;;;;;;6.50;3.88;;;25.40;52.90;;;;;;4959046;28;20030;-78
2022/08/13 12:12:49;;;;;;;7.00;4.15;;;25.40;53.10;;;;;;4975084;28;20361;-79
2022/08/13 12:15:15;;;;;;;5.65;3.75;;;25.40;53.70;;;;;;4991782;28;20473;-79
2022/08/13 12:17:43;;;;;;;5.25;4.07;;;25.40;53.30;;;;;;4975304;28;20101;-79
2022/08/13 12:20:12;;;;;;;7.05;4.50;;;25.40;53.20;;;;;;4959025;28;20027;-79
2022/08/13 12:22:39;;;;;;;10.18;4.15;;;25.40;53.20;;;;;;4958800;28;20387;-80
2022/08/13 12:25:06;;;;;;;5.15;3.70;;;25.40;53.30;;;;;;4974409;28;20034;-80
2022/08/13 12:27:32;;;;;;;8.07;4.13;;;25.40;53.50;;;;;;4974886;28;20030;-80
2022/08/13 12:29:57;;;;;;;6.20;3.90;;;25.40;53.60;;;;;;4959164;28;20080;-81
2022/08/13 12:32:23;;;;;;;5.53;3.88;;;25.40;53.50;;;;;;4996030;28;20136;-79
2022/08/13 12:34:49;;;;;;;6.93;4.60;;;25.40;53.20;;;;;;4962809;28;20030;-80
2022/08/13 12:37:15;;;;;;;5.55;4.07;;;25.40;53.00;;;;;;4962198;28;20042;-80
2022/08/13 12:39:41;;;;;;;4.80;3.70;;;25.40;53.20;;;;;;4946662;28;20030;-79
2022/08/13 12:42:07;;;;;;;5.35;3.83;;;25.40;53.00;;;;;;4962779;28;20129;-80
2022/08/13 12:44:32;;;;;;;5.20;3.83;;;25.50;53.00;;;;;;4962570;28;20038;-79
2022/08/13 12:46:58;;;;;;;6.03;4.05;;;25.50;53.10;;;;;;4977976;28;20038;-80
2022/08/13 12:49:24;;;;;;;5.13;3.92;;;25.50;53.00;;;;;;4978522;28;20104;-79
2022/08/13 12:51:50;;;;;;;5.88;3.88;;;25.50;53.00;;;;;;4978785;28;20066;-79
2022/08/13 12:54:16;;;;;;;5.05;3.72;;;25.50;53.00;;;;;;4962396;28;20037;-79
2022/08/13 12:56:43;;;;;;;4.90;3.78;;;25.50;53.00;;;;;;4961607;28;20027;-79
2022/08/13 12:59:09;;;;;;;9.68;4.03;;;25.50;53.00;;;;;;4962423;28;20026;-79
2022/08/13 13:01:35;;;;;;;5.13;3.55;;;25.50;53.00;;;;;;4978567;28;20042;-79
2022/08/13 13:04:00;;;;;;;5.20;3.92;;;25.50;53.00;;;;;;4978214;28;20037;-79
2022/08/13 13:06:26;;;;;;;4.93;3.72;;;25.50;53.00;;;;;;4977728;28;20034;-79